• Join FlightAware (Why Join?)
  • Login
  • US Flag GB Flag 
08:23 EDT


 

Airport Tracker/Info


-or-


 

Live Flight TrackerFlight Track Log ✈ SWA3497 ✈ 28-Apr-2013 ✈ KSDF - KBWI

Flight Track Log - Related Links

Times and Time Zones

All times are in EDT time to prevent confusion due to time zone crossing. See the SWA3497 flight status page for this flight to view local times or setup timezone preferences in your user account.

Time Position Orientation Groundspeed Altitude Reporting Facility
EDT Latitude Longitude Course Direction KTS MPH feet Rate Location/Type
14:08 38.1500 -85.7333 159° South 162 186 1,600  Level Louisville TRACON
14:10 38.1049 -85.5815 113° Southeast  Level FlightAware Approximate
14:10 38.0658 -85.6931 113° Southeast 237 273 4,600  Level Indianapolis Center
14:11 38.0050 -85.6475 149° Southeast 272 313 8,400 3,300 Climbing Indianapolis Center
14:12 38.0222 -85.5389 79° East 309 356 11,400 3,060 Climbing Indianapolis Center
14:13 38.0361 -85.3897 83° East 360 414 14,800 3,120 Climbing Indianapolis Center
14:14 38.0494 -85.2539 83° East 391 450 17,900 2,760 Climbing Indianapolis Center
14:15 38.0636 -85.1172 82° East 405 466 20,600 2,580 Climbing Indianapolis Center
14:16 38.0789 -84.9675 83° East 422 486 23,200 2,640 Climbing Indianapolis Center
14:17 38.0950 -84.7894 83° East 433 498 26,100 2,340 Climbing Indianapolis Center
14:18 38.1103 -84.6317 83° East 447 514 28,100 1,560 Climbing Indianapolis Center
14:19 38.1272 -84.4661 83° East 467 537 29,400 1,200 Climbing Indianapolis Center
14:20 38.1431 -84.2928 83° East 489 563 30,700 1,440 Climbing Indianapolis Center
14:21 38.1597 -84.1133 83° East 505 581 32,400 1,560 Climbing Indianapolis Center
14:22 38.1764 -83.9353 83° East 507 583 34,000 1,560 Climbing Indianapolis Center
14:23 38.1956 -83.7228 83° East 514 592 35,700 960 Climbing Indianapolis Center
14:24 38.2111 -83.5419 84° East 513 590 36,000 120 Climbing Indianapolis Center
14:26 38.2222 -83.3600 85° East 513 590 36,000  Level Indianapolis Center
14:27 38.2278 -83.1797 88° East 511 588 36,000  Level Indianapolis Center
14:28 38.2339 -83.0008 87° East 507 583 36,000  Level Indianapolis Center
14:29 38.2411 -82.8183 87° East 512 589 36,000  Level Indianapolis Center
14:30 38.2436 -82.6378 89° East 509 586 36,000  Level Indianapolis Center
14:31 38.2464 -82.4442 89° East 510 587 36,000  Level Indianapolis Center
14:32 38.2500 -82.2647 88° East 508 585 36,000 420 Level Indianapolis Center
14:33 38.2519 -82.0875 89° East 503 579 36,900 480 Climbing Indianapolis Center
14:34 38.2539 -81.9081 89° East 509 586 37,000  Climbing Indianapolis Center
14:35 38.2567 -81.6939 89° East 510 587 37,000  Level Indianapolis Center
14:36 38.2581 -81.5150 89° East 511 588 37,000  Level Indianapolis Center
14:37 38.2583 -81.3369 90° East 510 587 37,000  Level Indianapolis Center
14:38 38.2597 -81.1592 89° East 509 586 37,000  Level Indianapolis Center
14:39 38.2592 -81.0156 90° East 503 579 37,000  Level Washington Center
14:40 38.2617 -80.8200 89° East 497 572 37,000  Level Washington Center
14:41 38.2628 -80.6456 89° East 497 572 37,000  Level Washington Center
14:42 38.2617 -80.4736 90° East 497 572 37,000  Level Washington Center
14:43 38.2625 -80.2936 90° East 497 572 37,000  Level Washington Center
14:44 38.2622 -80.1375 90° East 497 572 37,000  Level Washington Center
14:45 38.2606 -79.9603 91° East 497 572 37,000  Level Washington Center
14:46 38.2772 -79.7842 83° East 497 572 37,000 -420 Level Washington Center
14:47 38.3125 -79.6089 76° East 497 572 36,200 -1,740 Descending Washington Center
14:48 38.3453 -79.4358 76° East 502 578 33,600 -2,640 Descending Washington Center
14:49 38.3844 -79.2469 75° East 502 578 31,100 -2,280 Descending Washington Center
14:50 38.4144 -79.0842 77° East 496 571 29,100 -1,980 Descending Washington Center
14:51 38.4461 -78.9242 76° East 475 547 27,100 -1,080 Descending Washington Center
14:52 38.4731 -78.7742 77° East 457 526 27,000 -60 Descending Washington Center
14:53 38.5019 -78.6242 76° East 439 505 27,000 -120 Level Washington Center
14:54 38.5286 -78.4764 77° East 433 498 26,800 -1,080 Descending Washington Center
14:55 38.5550 -78.3289 77° East 428 493 24,900 -1,920 Descending Washington Center
14:56 38.5831 -78.1864 76° East 428 493 23,100 -1,920 Descending Washington Center
14:57 38.6069 -78.0464 78° East 418 481 21,200 -1,860 Descending Washington Center
14:58 38.6325 -77.9064 77° East 407 468 19,400 -1,140 Descending Washington Center
14:59 38.6478 -77.7714 82° East 397 457 19,000 -240 Descending Washington Center
15:00 38.6542 -77.6306 87° East 392 451 19,000 -480 Level Washington Center
15:00 38.6667 -77.5500 79° East 408 470 18,300 -1,860 Descending Potomac TRACON
15:01 38.6667 -77.4000 90° East 406 467 16,200 -1,500 Descending Potomac TRACON
15:02 38.6833 -77.2667 81° East 384 442 15,400 -1,260 Descending Potomac TRACON
15:03 38.6833 -77.1333 90° East 366 421 13,700 -1,800 Descending Potomac TRACON
15:04 38.6833 -77.0000 90° East 362 417 11,800 -1,560 Descending Potomac TRACON
15:05 38.7000 -76.8833 80° East 345 397 10,600 -900 Descending Potomac TRACON
15:06 38.6983 -76.8392 93° East 348 400 10,500 -1,080 Descending Washington Center
15:07 38.7078 -76.7331 83° East 324 373 9,100 -1,380 Descending Washington Center
15:08 38.7833 -76.5833 57° Northeast 282 325 7,000 -1,200 Descending Potomac TRACON
15:09 38.8333 -76.5333 38° Northeast 282 325 6,000 -780 Descending Potomac TRACON
15:10 38.9000 -76.5667 339° North 281 323 5,500 -840 Descending Potomac TRACON
15:11 38.9833 -76.6000 343° North 285 328 4,500 -780 Descending Potomac TRACON
15:12 39.0167 -76.6833 297° West 268 308 4,000 -240 Descending Potomac TRACON
15:13 39.0500 -76.7833 293° West 260 299 4,000  Level Potomac TRACON
15:14 39.0833 -76.8667 297° West 250 288 4,000 -420 Level Potomac TRACON
15:15 39.1333 -76.8833 346° North 252 290 3,200 -900 Descending Potomac TRACON
15:16 39.1667 -76.8333 49° Northeast 219 252 2,200 -900 Descending Potomac TRACON
15:17 39.1833 -76.7667 72° East 165 190 1,400 -840 Descending Potomac TRACON
15:18 39.1833 -76.7167 90° East 141 162 600 -840 Descending Potomac TRACON
15:20 39.1754 -76.6683 21° North  Level Estimated
15:27 39.1754 -76.6683 North  Level Estimated
15:28 39.1754 -76.6683 North  Level Estimated